Time;durP1;ratioP1;P1;durP2;ratioP2;P2;SDS_P1;SDS_P2;PMS_P1;PMS_P2;Temp;Humidity;BMP_temperature;BMP_pressure;BME280_temperature;BME280_humidity;BME280_pressure;Samples;Min_cycle;Max_cycle;Signal;HPM_P1;HPM_P2
2023/08/19 00:01:45;;;;;;;;;17.25;15.00;;;;;28.84;50.25;100521.41;5038960;28;45259;-71
2023/08/19 00:04:10;;;;;;;;;20.50;19.00;;;;;28.82;50.06;100524.28;5038420;28;45241;-71
2023/08/19 00:06:39;;;;;;;;;17.75;17.75;;;;;28.80;50.35;100520.03;5038008;28;54787;-71
2023/08/19 00:09:08;;;;;;;;;21.25;19.25;;;;;28.83;50.52;100527.81;5021015;28;45922;-71
2023/08/19 00:11:34;;;;;;;;;19.50;17.50;;;;;28.80;50.25;100522.72;5042094;28;45427;-71
2023/08/19 00:14:00;;;;;;;;;19.75;19.75;;;;;28.79;50.29;100529.13;5023777;28;45255;-71
2023/08/19 00:16:26;;;;;;;;;18.00;18.00;;;;;28.79;50.31;100529.13;5042013;28;45245;-71
2023/08/19 00:18:51;;;;;;;;;16.25;16.25;;;;;28.77;50.22;100528.44;5040804;28;45187;-71
2023/08/19 00:21:17;;;;;;;;;21.00;20.50;;;;;28.75;50.62;100536.66;5041799;28;45222;-71
2023/08/19 00:23:42;;;;;;;;;17.00;16.00;;;;;28.74;50.67;100532.25;5041876;28;45247;-71
2023/08/19 00:26:08;;;;;;;;;20.00;18.25;;;;;28.70;50.34;100530.84;5042090;28;46417;-71
2023/08/19 00:28:33;;;;;;;;;19.50;18.75;;;;;28.72;50.60;100534.28;5023844;28;45234;-71
2023/08/19 00:30:58;;;;;;;;;18.50;18.50;;;;;28.72;50.80;100544.22;5042214;28;45237;-71
2023/08/19 00:33:24;;;;;;;;;15.75;14.75;;;;;28.69;50.42;100540.81;5041825;28;45564;-71
2023/08/19 00:35:51;;;;;;;;;16.25;16.00;;;;;28.68;50.51;100549.09;5041744;28;45615;-71
2023/08/19 00:38:17;;;;;;;;;18.50;18.50;;;;;28.67;50.58;100550.06;5040219;28;45385;-71
2023/08/19 00:40:42;;;;;;;;;19.75;18.75;;;;;28.65;50.78;100543.91;5028840;28;45434;-71
2023/08/19 00:43:07;;;;;;;;;18.25;15.50;;;;;28.65;51.30;100554.72;5026558;28;45500;-71
2023/08/19 00:45:33;;;;;;;;;21.75;20.50;;;;;28.62;50.92;100555.03;5021725;28;45361;-71
2023/08/19 00:47:58;;;;;;;;;23.25;20.00;;;;;28.62;50.92;100555.03;5021360;28;53287;-71
2023/08/19 00:50:24;;;;;;;;;20.00;18.00;;;;;28.59;50.88;100555.31;5021852;28;45361;-71
2023/08/19 00:52:50;;;;;;;;;15.25;15.25;;;;;28.56;50.88;100556.44;5021670;28;45390;-71
2023/08/19 00:55:16;;;;;;;;;19.75;19.25;;;;;28.59;51.05;100560.72;5021399;28;46744;-71
2023/08/19 00:57:42;;;;;;;;;22.75;18.50;;;;;28.57;51.14;100557.31;5021562;28;45385;-71
2023/08/19 01:00:08;;;;;;;;;22.25;21.25;;;;;28.53;51.26;100541.38;5020711;28;45272;-71
2023/08/19 01:02:33;;;;;;;;;22.00;20.25;;;;;28.53;50.78;100549.47;5025378;28;45329;-71
2023/08/19 01:04:59;;;;;;;;;22.50;21.50;;;;;28.51;50.96;100547.91;5041107;28;45878;-71
2023/08/19 01:07:35;;;;;;;;;23.75;21.25;;;;;28.51;50.99;100543.34;5041079;28;45530;-71
2023/08/19 01:10:08;;;;;;;;;18.50;16.75;;;;;28.51;51.24;100545.22;5040006;28;45370;-71
2023/08/19 01:12:46;;;;;;;;;21.50;20.25;;;;;28.49;51.38;100548.06;5041209;28;45260;-71
2023/08/19 01:15:20;;;;;;;;;20.00;18.50;;;;;28.45;50.87;100541.25;5041097;28;45552;-71
2023/08/19 01:17:48;;;;;;;;;22.75;17.00;;;;;28.48;51.15;100559.88;5041341;28;45361;-71
2023/08/19 01:20:14;;;;;;;;;20.00;18.25;;;;;28.46;51.03;100553.75;5040864;28;45313;-71
2023/08/19 01:22:43;;;;;;;;;25.25;22.25;;;;;28.46;51.40;100566.41;5041311;28;45226;-71
2023/08/19 01:25:09;;;;;;;;;19.00;18.00;;;;;28.45;51.19;100576.38;5032757;28;46547;-71
2023/08/19 01:27:35;;;;;;;;;20.50;20.00;;;;;28.42;51.16;100565.00;5020927;28;45339;-71
2023/08/19 01:30:00;;;;;;;;;21.00;20.50;;;;;28.42;51.56;100568.53;5021056;28;45423;-71
2023/08/19 01:32:27;;;;;;;;;22.25;21.25;;;;;28.40;51.32;100570.53;5020794;28;45609;-71
2023/08/19 01:34:53;;;;;;;;;19.75;18.25;;;;;28.40;51.45;100570.53;5002186;28;47695;-71
2023/08/19 01:37:31;;;;;;;;;19.50;19.50;;;;;28.37;51.24;100577.06;5032384;28;45487;-71
2023/08/19 01:39:59;;;;;;;;;21.00;21.00;;;;;28.40;51.40;100583.19;5039259;28;45456;-71
2023/08/19 01:42:25;;;;;;;;;18.25;18.25;;;;;28.35;51.29;100576.38;5039004;28;45570;-71
2023/08/19 01:44:52;;;;;;;;;24.00;21.00;;;;;28.34;51.47;100571.97;5039695;28;46672;-71
2023/08/19 01:47:17;;;;;;;;;19.75;19.00;;;;;28.33;51.34;100583.75;5040804;28;45345;-71
2023/08/19 01:49:43;;;;;;;;;23.50;21.50;;;;;28.32;52.08;100581.19;5040214;28;45357;-71
2023/08/19 01:52:11;;;;;;;;;20.25;20.00;;;;;28.31;51.58;100591.13;5040970;28;45349;-71
2023/08/19 01:54:36;;;;;;;;;24.25;21.75;;;;;28.29;51.52;100595.84;5040297;28;45492;-71
2023/08/19 01:57:02;;;;;;;;;19.00;18.00;;;;;28.27;51.63;100596.97;5037202;28;45675;-71
2023/08/19 01:59:27;;;;;;;;;24.00;23.25;;;;;28.24;51.89;100600.81;5039837;28;45393;-70
2023/08/19 02:01:53;;;;;;;;;22.00;21.00;;;;;28.25;51.60;100609.75;5040271;28;45424;-71
2023/08/19 02:04:18;;;;;;;;;23.00;20.00;;;;;28.22;51.51;100600.09;5023228;28;48028;-71
2023/08/19 02:06:43;;;;;;;;;21.50;20.75;;;;;28.19;51.86;100609.34;5020711;28;45217;-71
2023/08/19 02:09:09;;;;;;;;;20.75;18.75;;;;;28.20;51.73;100607.47;5020604;28;45160;-71
2023/08/19 02:11:34;;;;;;;;;22.25;18.25;;;;;28.19;51.95;100608.50;5020626;28;45458;-71
2023/08/19 02:13:59;;;;;;;;;22.75;21.00;;;;;28.20;51.57;100608.34;5020363;28;46453;-71
2023/08/19 02:16:25;;;;;;;;;19.50;19.25;;;;;28.16;51.65;100609.63;5020282;28;45349;-71
2023/08/19 02:18:50;;;;;;;;;19.00;19.00;;;;;28.16;52.37;100615.03;5019593;28;45498;-71
2023/08/19 02:21:15;;;;;;;;;20.50;19.50;;;;;28.14;51.97;100617.00;5020437;28;45266;-71
2023/08/19 02:23:41;;;;;;;;;17.25;17.25;;;;;28.14;51.53;100617.00;5019846;28;51679;-71
2023/08/19 02:26:06;;;;;;;;;19.25;18.00;;;;;28.12;52.11;100612.75;5020478;28;45404;-71
2023/08/19 02:28:32;;;;;;;;;19.00;18.75;;;;;28.11;51.91;100614.56;5020232;28;45329;-71
2023/08/19 02:31:02;;;;;;;;;19.75;18.50;;;;;28.12;51.94;100620.84;5014523;28;45338;-71
2023/08/19 02:33:27;;;;;;;;;20.25;18.50;;;;;28.10;51.52;100620.97;5024457;28;46130;-72
2023/08/19 02:35:53;;;;;;;;;16.00;16.00;;;;;28.08;51.37;100620.25;5019916;28;45267;-71
2023/08/19 02:38:18;;;;;;;;;21.25;20.25;;;;;28.05;51.85;100626.78;5025488;28;45477;-71
2023/08/19 02:40:49;;;;;;;;;16.00;15.25;;;;;28.07;51.90;100633.91;5040014;28;45243;-71
2023/08/19 02:43:14;;;;;;;;;20.00;17.25;;;;;28.07;51.27;100640.16;5039752;28;46755;-71
2023/08/19 02:45:42;;;;;;;;;17.25;16.00;;;;;28.07;51.51;100650.09;5039790;28;48387;-71
2023/08/19 02:48:08;;;;;;;;;19.75;16.75;;;;;28.04;51.53;100653.94;5039954;28;45381;-71
2023/08/19 02:50:33;;;;;;;;;20.50;18.50;;;;;28.03;51.63;100646.78;5039696;28;45247;-71
2023/08/19 02:52:59;;;;;;;;;21.75;18.75;;;;;28.03;51.56;100655.78;5039854;28;45230;-71
2023/08/19 02:55:24;;;;;;;;;16.75;15.50;;;;;28.02;51.21;100645.09;5039678;28;46806;-71
2023/08/19 02:57:50;;;;;;;;;15.75;14.75;;;;;28.01;51.78;100646.06;5039895;28;45357;-71
2023/08/19 03:00:15;;;;;;;;;21.25;19.25;;;;;28.00;51.03;100644.34;5039839;28;45389;-71
2023/08/19 03:02:44;;;;;;;;;15.00;15.00;;;;;27.99;50.95;100651.63;5039479;28;46177;-71
2023/08/19 03:05:10;;;;;;;;;17.75;16.00;;;;;28.01;51.35;100662.28;5039604;28;45308;-71
2023/08/19 03:07:35;;;;;;;;;17.50;15.75;;;;;27.99;51.20;100658.88;5021697;28;45274;-71
2023/08/19 03:10:00;;;;;;;;;17.25;15.75;;;;;27.97;51.19;100664.38;5039805;28;45277;-71
2023/08/19 03:12:26;;;;;;;;;19.25;17.50;;;;;27.98;50.88;100665.25;5037912;28;48978;-71
2023/08/19 03:14:51;;;;;;;;;14.25;13.50;;;;;27.98;51.33;100674.19;5039649;28;45227;-71
2023/08/19 03:17:17;;;;;;;;;10.75;10.75;;;;;27.98;51.19;100670.66;5039806;28;45493;-71
2023/08/19 03:19:42;;;;;;;;;17.00;15.50;;;;;27.95;51.43;100666.38;5038145;28;45336;-71
2023/08/19 03:22:07;;;;;;;;;16.50;16.50;;;;;27.94;50.84;100663.81;5039231;28;45942;-71
2023/08/19 03:24:33;;;;;;;;;19.50;18.50;;;;;27.90;50.92;100655.16;5039651;28;45235;-71
2023/08/19 03:26:58;;;;;;;;;18.00;16.75;;;;;27.92;50.91;100672.03;5039467;28;45235;-71
2023/08/19 03:29:24;;;;;;;;;16.00;16.00;;;;;27.89;50.99;100672.34;5027129;28;45564;-71
2023/08/19 03:31:50;;;;;;;;;18.75;16.75;;;;;27.87;50.74;100671.59;5035384;28;45999;-71
2023/08/19 03:34:15;;;;;;;;;18.00;17.00;;;;;27.84;50.84;100675.44;5019050;28;46258;-72
2023/08/19 03:36:40;;;;;;;;;16.50;14.50;;;;;27.86;51.34;100681.56;5025974;28;45379;-71
2023/08/19 03:39:06;;;;;;;;;14.00;13.25;;;;;27.86;50.89;100678.84;5021271;28;51337;-71
2023/08/19 03:41:31;;;;;;;;;20.25;17.50;;;;;27.84;51.01;100680.84;5038872;28;52458;-71
2023/08/19 03:43:56;;;;;;;;;14.50;13.00;;;;;27.84;50.53;100688.09;5026770;28;53589;-71
2023/08/19 03:46:21;;;;;;;;;12.50;12.00;;;;;27.83;50.91;100687.22;5027739;28;45300;-71
2023/08/19 03:48:47;;;;;;;;;13.50;12.50;;;;;27.84;51.08;100688.09;5005173;28;45405;-71
2023/08/19 03:51:12;;;;;;;;;13.75;13.75;;;;;27.83;50.85;100698.00;5022392;28;45338;-71
2023/08/19 03:53:37;;;;;;;;;12.00;12.00;;;;;27.82;50.59;100708.94;5022776;28;45324;-71
2023/08/19 03:56:04;;;;;;;;;13.00;11.00;;;;;27.80;50.31;100705.53;5022712;28;45365;-71
2023/08/19 03:58:39;;;;;;;;;16.25;13.25;;;;;27.74;50.06;100698.84;5022741;28;45577;-71
2023/08/19 04:01:06;;;;;;;;;12.75;12.75;;;;;27.78;50.64;100711.06;5021121;28;48492;-71
2023/08/19 04:03:31;;;;;;;;;14.00;14.00;;;;;27.78;50.43;100715.63;5023012;28;45256;-71
2023/08/19 04:05:56;;;;;;;;;13.25;13.25;;;;;27.76;50.37;100726.56;5054657;28;45325;-71
2023/08/19 04:08:22;;;;;;;;;11.25;10.75;;;;;27.73;49.96;100733.09;5022285;28;45209;-71
2023/08/19 04:10:47;;;;;;;;;15.75;14.75;;;;;27.73;49.99;100732.22;5022254;28;45945;-71
2023/08/19 04:13:12;;;;;;;;;14.00;13.00;;;;;27.71;50.17;100737.75;5022520;28;45298;-71
2023/08/19 04:15:38;;;;;;;;;12.00;10.75;;;;;27.71;50.20;100750.38;5022268;28;46683;-71
2023/08/19 04:18:03;;;;;;;;;12.00;10.25;;;;;27.70;50.04;100745.97;5022462;28;45600;-71
2023/08/19 04:20:29;;;;;;;;;12.25;12.25;;;;;27.70;50.09;100748.69;5022142;28;45275;-71
2023/08/19 04:22:55;;;;;;;;;10.75;10.75;;;;;27.64;49.25;100751.91;5022292;28;45488;-71
2023/08/19 04:25:20;;;;;;;;;13.00;12.00;;;;;27.64;49.65;100751.91;5021057;28;45455;-71
2023/08/19 04:27:45;;;;;;;;;12.25;11.00;;;;;27.66;49.51;100764.28;5022480;28;45302;-71
2023/08/19 04:30:11;;;;;;;;;12.00;12.00;;;;;27.64;49.28;100773.50;5022003;28;45285;-71
2023/08/19 04:32:36;;;;;;;;;11.25;11.00;;;;;27.60;49.63;100770.22;5022232;28;45353;-71
2023/08/19 04:35:03;;;;;;;;;9.00;9.00;;;;;27.60;49.11;100769.34;5021867;28;45331;-71
2023/08/19 04:37:28;;;;;;;;;11.00;9.75;;;;;27.60;49.58;100772.91;5036395;28;45321;-71
2023/08/19 04:39:54;;;;;;;;;11.50;9.75;;;;;27.57;49.26;100778.56;5039816;28;47016;-71
2023/08/19 04:42:19;;;;;;;;;9.00;9.00;;;;;27.55;48.81;100778.69;5041847;28;45296;-71
2023/08/19 04:44:44;;;;;;;;;9.75;9.75;;;;;27.53;48.79;100788.78;5042096;28;45318;-71
2023/08/19 04:47:10;;;;;;;;;10.25;10.25;;;;;27.50;49.10;100783.63;5029284;28;45609;-71
2023/08/19 04:49:35;;;;;;;;;10.50;9.25;;;;;27.49;49.10;100794.56;5026069;28;45239;-71
2023/08/19 04:52:00;;;;;;;;;10.00;7.50;;;;;27.47;48.53;100796.53;5021874;28;45175;-71
2023/08/19 04:54:26;;;;;;;;;11.00;9.00;;;;;27.45;48.85;100791.25;5021871;28;45293;-71
2023/08/19 04:56:51;;;;;;;;;9.25;9.25;;;;;27.45;49.03;100806.59;5021360;28;45570;-71
2023/08/19 04:59:16;;;;;;;;;7.00;7.00;;;;;27.42;48.93;100805.00;5021477;28;46292;-71
2023/08/19 05:01:42;;;;;;;;;9.00;9.00;;;;;27.34;48.64;100796.69;5020512;28;45187;-71
2023/08/19 05:04:07;;;;;;;;;9.75;9.00;;;;;27.35;48.68;100804.63;5038439;28;45525;-71
2023/08/19 05:06:32;;;;;;;;;6.25;6.25;;;;;27.36;48.82;100806.34;5028194;28;45505;-71
2023/08/19 05:08:58;;;;;;;;;8.00;8.00;;;;;27.34;48.26;100823.66;5027057;28;45437;-71
2023/08/19 05:11:23;;;;;;;;;9.25;9.25;;;;;27.33;48.22;100805.75;5021639;28;45215;-71
2023/08/19 05:13:48;;;;;;;;;8.75;7.75;;;;;27.33;49.02;100813.84;5021690;28;45443;-71
2023/08/19 05:16:14;;;;;;;;;10.75;9.50;;;;;27.32;48.40;100826.50;5020443;28;45554;-71
2023/08/19 05:18:39;;;;;;;;;6.25;6.25;;;;;27.27;48.76;100817.94;5021434;28;45310;-71
2023/08/19 05:21:05;;;;;;;;;9.50;8.75;;;;;27.30;48.31;100827.59;5021511;28;45485;-71
2023/08/19 05:23:30;;;;;;;;;11.25;9.75;;;;;27.24;48.80;100824.44;5020836;28;45736;-72
2023/08/19 05:25:55;;;;;;;;;11.00;10.00;;;;;27.27;48.63;100825.16;5021224;28;45230;-71
2023/08/19 05:28:24;;;;;;;;;9.00;8.50;;;;;27.23;48.24;100835.34;5020931;28;45447;-71
2023/08/19 05:30:49;;;;;;;;;9.50;7.00;;;;;27.20;48.29;100833.75;5019878;28;45371;-70
2023/08/19 05:33:15;;;;;;;;;7.00;7.00;;;;;27.21;48.35;100832.78;5021232;28;45320;-71
2023/08/19 05:35:40;;;;;;;;;7.50;7.50;;;;;27.19;48.15;100834.72;5019656;28;45540;-71
2023/08/19 05:38:05;;;;;;;;;7.00;7.00;;;;;27.20;48.02;100847.22;5039993;28;45349;-71
2023/08/19 05:40:31;;;;;;;;;7.00;7.00;;;;;27.19;48.24;100850.91;5034009;28;45342;-70
2023/08/19 05:42:56;;;;;;;;;6.25;6.25;;;;;27.20;48.50;100851.78;5031817;28;45346;-71
2023/08/19 05:45:21;;;;;;;;;6.75;6.00;;;;;27.20;48.25;100860.72;5021277;28;45268;-71
2023/08/19 05:47:47;;;;;;;;;8.00;8.00;;;;;27.19;48.30;100856.31;5021068;28;45235;-71
2023/08/19 05:50:12;;;;;;;;;9.00;7.50;;;;;27.18;48.19;100857.31;5019693;28;45281;-72
2023/08/19 05:52:37;;;;;;;;;7.50;7.50;;;;;27.19;48.21;100861.69;5021015;28;45397;-72
2023/08/19 05:55:03;;;;;;;;;7.00;7.00;;;;;27.19;48.20;100872.47;5019462;28;45270;-71
2023/08/19 05:57:29;;;;;;;;;9.25;7.25;;;;;27.19;47.91;100872.47;5019629;28;47646;-71
2023/08/19 05:59:54;;;;;;;;;10.00;8.00;;;;;27.19;48.12;100874.34;5027605;28;45185;-71
2023/08/19 06:02:19;;;;;;;;;6.25;5.00;;;;;27.19;48.34;100868.94;5040948;28;45227;-71
2023/08/19 06:04:45;;;;;;;;;7.50;6.50;;;;;27.17;48.16;100874.47;5019607;28;45761;-71
2023/08/19 06:07:10;;;;;;;;;9.25;7.50;;;;;27.16;48.25;100870.06;5019610;28;46712;-71
2023/08/19 06:09:35;;;;;;;;;9.00;8.00;;;;;27.15;48.26;100870.19;5020516;28;45301;-71
2023/08/19 06:12:02;;;;;;;;;6.50;6.50;;;;;27.16;48.08;100880.84;5020610;28;45258;-71
2023/08/19 06:14:27;;;;;;;;;6.00;6.00;;;;;27.13;47.96;100877.53;5019322;28;45543;-71
2023/08/19 06:16:52;;;;;;;;;7.00;6.25;;;;;27.15;48.62;100876.44;5020429;28;45351;-71
2023/08/19 06:19:18;;;;;;;;;9.00;6.75;;;;;27.15;48.60;100875.59;5020127;28;45318;-71
2023/08/19 06:21:43;;;;;;;;;8.25;8.25;;;;;27.16;48.04;100886.25;5022954;28;45564;-71
2023/08/19 06:24:08;;;;;;;;;6.25;6.00;;;;;27.16;48.31;100897.03;5002005;28;45389;-71
2023/08/19 06:26:36;;;;;;;;;6.75;6.75;;;;;27.16;48.50;100899.72;5015647;28;45968;-71
2023/08/19 06:29:02;;;;;;;;;8.75;7.50;;;;;27.15;48.25;100905.25;5016508;28;45298;-71
2023/08/19 06:31:27;;;;;;;;;11.50;7.25;;;;;27.15;48.60;100906.09;5000747;28;45337;-71
2023/08/19 06:33:54;;;;;;;;;10.75;8.50;;;;;27.15;47.91;100908.78;5000064;28;45227;-71
2023/08/19 06:36:23;;;;;;;;;8.00;7.00;;;;;27.16;48.32;100915.06;5005296;28;46389;-71
2023/08/19 06:39:07;;;;;;;;;7.00;6.00;;;;;27.16;47.68;100917.75;5018943;28;46008;-71
2023/08/19 06:41:39;;;;;;;;;6.00;6.00;;;;;27.17;48.21;100930.22;5004457;28;45241;-71
2023/08/19 06:44:07;;;;;;;;;8.75;7.50;;;;;27.16;48.37;100945.56;5000284;28;45566;-71
2023/08/19 06:46:32;;;;;;;;;6.00;6.00;;;;;27.17;47.89;100941.91;5000026;28;45431;-71
2023/08/19 06:48:59;;;;;;;;;6.25;6.25;;;;;27.15;48.62;100941.16;4999988;28;45420;-71
2023/08/19 06:51:26;;;;;;;;;7.00;5.00;;;;;27.14;48.30;100941.28;4999093;28;45361;-71
2023/08/19 06:53:52;;;;;;;;;8.25;7.75;;;;;27.11;48.35;100947.78;5000226;28;45270;-71
2023/08/19 06:56:28;;;;;;;;;8.25;7.50;;;;;27.13;48.07;100958.44;4999785;28;45508;-71
2023/08/19 06:59:06;;;;;;;;;7.50;7.00;;;;;27.10;48.38;100964.94;5000283;28;45293;-71
2023/08/19 07:01:34;;;;;;;;;7.00;6.00;;;;;27.08;48.38;100961.50;5005839;28;45349;-71
2023/08/19 07:04:00;;;;;;;;;6.00;5.00;;;;;27.06;48.35;100963.47;5034489;28;45532;-71
2023/08/19 07:06:29;;;;;;;;;6.50;6.25;;;;;27.03;48.60;100971.81;5035076;28;46251;-71
2023/08/19 07:08:57;;;;;;;;;5.75;5.75;;;;;27.02;48.33;100975.47;5019434;28;45187;-71
2023/08/19 07:11:23;;;;;;;;;6.00;5.00;;;;;26.99;47.91;100967.66;5035190;28;45252;-71
2023/08/19 07:13:49;;;;;;;;;6.00;6.00;;;;;26.98;48.43;100971.31;5034858;28;45423;-71
2023/08/19 07:16:17;;;;;;;;;8.75;6.25;;;;;26.99;48.85;100973.03;5019728;28;45384;-71
2023/08/19 07:18:47;;;;;;;;;4.00;4.00;;;;;26.96;48.71;100982.22;5019317;28;45344;-71
2023/08/19 07:21:15;;;;;;;;;5.50;4.50;;;;;26.93;48.35;100972.56;5019711;28;45318;-71
2023/08/19 07:23:44;;;;;;;;;6.75;6.50;;;;;26.92;48.09;100968.13;5034129;28;45593;-71
2023/08/19 07:26:09;;;;;;;;;3.50;3.50;;;;;26.89;48.47;100954.91;5018971;28;45354;-71
2023/08/19 07:28:35;;;;;;;;;5.25;3.75;;;;;26.91;48.39;100958.31;5019208;28;45275;-71
2023/08/19 07:31:02;;;;;;;;;3.00;3.00;;;;;26.90;48.54;100956.59;5018326;28;45365;-71
2023/08/19 07:33:27;;;;;;;;;6.75;3.75;;;;;26.90;48.88;100955.75;5019017;28;45420;-69
2023/08/19 07:35:53;;;;;;;;;4.00;4.00;;;;;26.89;48.44;100964.81;5018888;28;51885;-67
2023/08/19 07:38:18;;;;;;;;;3.25;3.25;;;;;26.86;48.73;100965.09;5020716;28;45353;-72
2023/08/19 07:40:44;;;;;;;;;4.25;2.00;;;;;26.85;48.08;100985.78;5019466;28;45300;-69
2023/08/19 07:43:09;;;;;;;;;0.75;0.75;;;;;26.83;48.35;101003.94;5019202;28;45460;-68
2023/08/19 07:45:35;;;;;;;;;6.25;5.25;;;;;26.80;49.04;101011.41;5019307;28;45431;-70
2023/08/19 07:48:00;;;;;;;;;5.25;4.00;;;;;26.80;48.41;101020.31;5019283;28;45781;-66
2023/08/19 07:50:26;;;;;;;;;3.25;3.25;;;;;26.76;48.87;101022.41;5017824;28;45327;-72
2023/08/19 07:52:52;;;;;;;;;3.00;3.00;;;;;26.71;48.90;101021.03;5019243;28;45270;-69
2023/08/19 07:55:18;;;;;;;;;4.00;2.00;;;;;26.68;48.71;101038.28;5017511;28;47023;-70
2023/08/19 07:57:43;;;;;;;;;5.00;5.00;;;;;26.66;48.99;101036.69;5019090;28;45459;-67
2023/08/19 08:00:09;;;;;;;;;4.25;4.25;;;;;26.60;48.95;101040.72;5019303;28;45185;-67
2023/08/19 08:02:34;;;;;;;;;5.00;3.00;;;;;26.54;49.32;101027.72;5019001;28;45309;-70
2023/08/19 08:05:02;;;;;;;;;6.50;5.25;;;;;26.51;48.88;101054.91;5017629;28;46460;-70
2023/08/19 08:07:27;;;;;;;;;6.75;5.00;;;;;26.41;48.82;101073.59;5003109;28;45358;-72
2023/08/19 08:09:52;;;;;;;;;4.00;4.00;;;;;26.40;49.54;101088.94;4999171;28;45327;-66
2023/08/19 08:12:18;;;;;;;;;4.00;3.75;;;;;26.34;49.46;101107.38;4999141;28;45481;-66
2023/08/19 08:14:43;;;;;;;;;5.25;3.00;;;;;26.30;49.45;101133.66;5006332;28;52327;-67
2023/08/19 08:17:08;;;;;;;;;7.75;4.25;;;;;26.26;49.98;101138.44;5009073;28;45353;-64
2023/08/19 08:19:33;;;;;;;;;4.00;4.00;;;;;26.19;49.54;101158.72;5009795;28;45428;-66
2023/08/19 08:21:59;;;;;;;;;4.75;4.75;;;;;26.14;50.58;101177.06;5009353;28;51884;-64
2023/08/19 08:24:25;;;;;;;;;5.00;5.00;;;;;26.09;50.49;101176.53;5017626;28;47367;-65
2023/08/19 08:26:50;;;;;;;;;5.50;5.50;;;;;26.00;50.95;101193.31;5031390;28;45464;-65
2023/08/19 08:29:16;;;;;;;;;6.25;5.00;;;;;25.90;51.04;101190.41;5044204;28;45320;-63
2023/08/19 08:31:41;;;;;;;;;5.50;5.25;;;;;25.86;51.41;101186.22;5044176;28;45270;-66
2023/08/19 08:34:07;;;;;;;;;7.00;6.00;;;;;25.79;51.17;101166.97;5051178;28;49775;-67
2023/08/19 08:36:33;;;;;;;;;5.50;3.25;;;;;25.75;51.16;101147.50;5042032;28;45336;-65
2023/08/19 08:38:58;;;;;;;;;6.75;5.00;;;;;25.73;50.93;101132.44;5025736;28;45400;-65
2023/08/19 08:41:24;;;;;;;;;5.00;5.00;;;;;25.66;51.36;101150.88;5041602;28;45171;-64
2023/08/19 08:43:52;;;;;;;;;3.00;3.00;;;;;25.63;50.97;101165.41;5041413;28;54384;-65
2023/08/19 08:46:21;;;;;;;;;1.50;1.50;;;;;25.57;51.05;101171.22;5054945;28;45439;-69
2023/08/19 08:48:47;;;;;;;;;6.75;4.75;;;;;25.54;51.43;101179.50;5041462;28;45332;-69
2023/08/19 08:51:15;;;;;;;;;6.00;5.50;;;;;25.50;51.88;101180.69;5033689;28;45320;-68
2023/08/19 08:53:41;;;;;;;;;7.75;7.75;;;;;25.45;52.07;101174.78;5020051;28;45987;-67
2023/08/19 08:56:07;;;;;;;;;7.75;7.00;;;;;25.39;52.15;101146.47;5021589;28;45460;-69
2023/08/19 08:58:33;;;;;;;;;7.25;5.50;;;;;25.34;51.89;101145.03;5021959;28;45388;-72
2023/08/19 09:01:01;;;;;;;;;4.75;4.75;;;;;25.31;52.37;101157.72;5021546;28;45314;-69
2023/08/19 09:03:30;;;;;;;;;7.75;5.75;;;;;25.27;52.84;101161.59;5038454;28;46215;-66
2023/08/19 09:06:00;;;;;;;;;8.25;8.00;;;;;25.26;52.98;101170.63;5041016;28;45438;-67
2023/08/19 09:08:41;;;;;;;;;6.50;6.50;;;;;25.26;52.50;101161.72;5041377;28;45178;-69
2023/08/19 09:11:11;;;;;;;;;6.00;4.75;;;;;25.25;52.63;101174.28;5041089;28;45525;-68
2023/08/19 09:13:39;;;;;;;;;7.25;6.00;;;;;25.26;52.67;101189.47;5041155;28;45529;-63
2023/08/19 09:16:10;;;;;;;;;10.50;7.00;;;;;25.27;52.51;101163.41;5041281;28;45183;-67
2023/08/19 09:18:35;;;;;;;;;9.75;7.00;;;;;25.25;53.06;101162.69;5040865;28;45261;-67
2023/08/19 09:21:01;;;;;;;;;9.25;8.75;;;;;25.23;53.23;101178.06;5027630;28;45302;-66
2023/08/19 09:23:30;;;;;;;;;6.50;5.50;;;;;25.23;53.54;101192.38;5027240;28;45317;-65
2023/08/19 09:25:57;;;;;;;;;7.00;7.00;;;;;25.20;53.56;101195.25;5021141;28;45418;-64
2023/08/19 09:28:22;;;;;;;;;9.25;7.00;;;;;25.20;53.74;101232.91;5021148;28;45530;-66
2023/08/19 09:30:48;;;;;;;;;6.75;6.75;;;;;25.17;53.81;101245.69;5020800;28;54825;-65
2023/08/19 09:33:20;;;;;;;;;7.50;7.50;;;;;25.13;54.14;101243.22;5020898;28;45598;-67
2023/08/19 09:35:54;;;;;;;;;7.75;7.00;;;;;25.09;54.16;101239.03;5021283;28;45476;-67
2023/08/19 09:38:20;;;;;;;;;13.50;12.50;;;;;25.08;54.80;101253.44;5035930;28;45392;-65
2023/08/19 09:41:08;;;;;;;;;8.75;8.00;;;;;25.06;54.01;101257.19;5038574;28;45729;-67
2023/08/19 09:43:38;;;;;;;;;9.75;8.75;;;;;25.04;54.44;101264.50;5037543;28;45580;-68
2023/08/19 09:46:03;;;;;;;;;9.50;9.50;;;;;24.99;54.85;101283.59;5029825;28;45520;-67
2023/08/19 09:48:28;;;;;;;;;6.75;6.75;;;;;24.98;54.76;101292.63;5019545;28;45667;-66
2023/08/19 09:50:54;;;;;;;;;8.25;8.00;;;;;24.92;55.18;101299.28;5018516;28;45836;-65
2023/08/19 09:53:20;;;;;;;;;8.75;8.00;;;;;24.88;55.30;101299.59;5019181;28;47283;-64
2023/08/19 09:55:49;;;;;;;;;8.00;8.00;;;;;24.86;54.70;101286.25;5020637;28;45333;-67
2023/08/19 09:58:15;;;;;;;;;7.25;5.50;;;;;24.82;55.02;101296.34;5020681;28;45334;-67
2023/08/19 10:00:41;;;;;;;;;6.00;6.00;;;;;24.81;55.05;101307.19;5002867;28;45428;-67
2023/08/19 10:03:07;;;;;;;;;6.75;6.00;;;;;24.80;54.90;101305.47;5029036;28;46492;-67
2023/08/19 10:05:39;;;;;;;;;9.25;8.50;;;;;24.77;54.84;101295.78;5040445;28;45374;-70
2023/08/19 10:08:10;;;;;;;;;8.00;8.00;;;;;24.74;55.14;101297.81;5036239;28;45719;-69
2023/08/19 10:10:39;;;;;;;;;9.50;9.50;;;;;24.75;54.65;101286.09;5039777;28;45490;-72
2023/08/19 10:13:07;;;;;;;;;6.00;6.00;;;;;24.75;54.68;101275.34;5039149;28;46174;-70
2023/08/19 10:15:33;;;;;;;;;9.00;7.00;;;;;24.78;54.86;101269.75;5040139;28;45440;-72
2023/08/19 10:18:03;;;;;;;;;8.25;7.75;;;;;24.79;54.87;101282.25;5040278;28;45243;-75
2023/08/19 10:20:32;;;;;;;;;10.25;9.50;;;;;24.78;54.73;101278.72;5039779;28;45472;-72
2023/08/19 10:23:00;;;;;;;;;9.25;6.75;;;;;24.79;55.34;101309.13;5039752;28;46193;-77
2023/08/19 10:25:27;;;;;;;;;9.75;7.25;;;;;24.76;55.21;101310.19;5040360;28;45399;-70
2023/08/19 10:28:04;;;;;;;;;11.25;11.25;;;;;24.78;54.92;101307.38;5033420;28;45498;-73
2023/08/19 10:30:31;;;;;;;;;12.00;12.00;;;;;24.76;55.37;101277.09;5039973;28;45273;-73
2023/08/19 10:33:05;;;;;;;;;9.00;8.50;;;;;24.77;54.97;101295.78;5039979;28;46347;-68
2023/08/19 10:36:01;;;;;;;;;8.00;8.00;;;;;24.78;55.05;101297.50;5026837;28;45499;-72
2023/08/19 10:38:48;;;;;;;;;13.00;12.00;;;;;24.78;55.22;101302.91;5035372;28;45371;-66
2023/08/19 10:41:30;;;;;;;;;8.75;7.75;;;;;24.81;55.27;101296.44;5022753;28;45292;-73
2023/08/19 10:44:11;;;;;;;;;11.50;11.50;;;;;24.82;55.65;101292.81;5038532;28;46887;-72
2023/08/19 10:46:46;;;;;;;;;7.25;7.25;;;;;24.82;55.04;101299.03;5014850;28;45463;-72
2023/08/19 10:49:14;;;;;;;;;8.00;8.00;;;;;24.86;55.30;101299.69;5039400;28;45489;-72
2023/08/19 10:51:51;;;;;;;;;9.25;8.00;;;;;24.90;55.46;101295.84;5021617;28;45329;-73
2023/08/19 10:54:28;;;;;;;;;7.50;6.00;;;;;24.96;55.11;101295.44;5035144;28;45408;-70
2023/08/19 10:57:15;;;;;;;;;8.00;8.00;;;;;25.05;55.45;101309.22;5039337;28;45333;-70
2023/08/19 10:59:43;;;;;;;;;7.00;6.00;;;;;25.10;56.01;101296.34;5039672;28;45331;-72
2023/08/19 11:02:09;;;;;;;;;6.50;6.50;;;;;25.17;55.40;101305.72;5038516;28;45609;-74
2023/08/19 11:04:40;;;;;;;;;6.50;6.50;;;;;25.22;55.40;101314.34;5037806;28;46468;-68
2023/08/19 11:07:07;;;;;;;;;8.00;7.00;;;;;25.30;55.42;101311.97;5039280;28;45445;-68
2023/08/19 11:09:33;;;;;;;;;8.25;7.25;;;;;25.36;55.40;101300.00;5026668;28;45292;-68
2023/08/19 11:11:58;;;;;;;;;7.25;6.00;;;;;25.42;55.35;101312.16;5039085;28;45377;-69
2023/08/19 11:14:24;;;;;;;;;7.50;7.50;;;;;25.47;55.38;101297.44;5039140;28;45459;-68
2023/08/19 11:16:51;;;;;;;;;6.75;6.75;;;;;25.53;55.51;101311.44;5035123;28;45531;-71